createdAt,value
2018-06-01T00:02:16.511Z,20.40
2018-06-01T00:05:19.015Z,20.40
2018-06-01T00:08:21.527Z,20.50
2018-06-01T00:11:24.044Z,20.50
2018-06-01T00:14:26.551Z,20.50
2018-06-01T00:17:29.063Z,20.50
2018-06-01T00:20:31.546Z,20.40
2018-06-01T00:23:34.837Z,20.40
2018-06-01T00:26:37.358Z,20.30
2018-06-01T00:29:39.874Z,20.40
2018-06-01T00:32:42.383Z,20.40
2018-06-01T00:35:44.859Z,20.40
2018-06-01T00:38:47.338Z,20.40
2018-06-01T00:41:50.621Z,20.50
2018-06-01T00:44:53.154Z,20.50
2018-06-01T00:47:55.652Z,20.50
2018-06-01T00:50:58.162Z,20.60
2018-06-01T00:54:00.655Z,20.50
2018-06-01T00:57:03.156Z,20.40
2018-06-01T01:00:05.638Z,20.30
2018-06-01T01:03:08.134Z,20.10
2018-06-01T01:06:10.610Z,20.10
2018-06-01T01:09:13.118Z,20.00
2018-06-01T01:12:16.434Z,20.00
2018-06-01T01:15:19.724Z,20.00
2018-06-01T01:18:23.034Z,19.90
2018-06-01T01:21:25.554Z,19.80
2018-06-01T01:24:28.051Z,19.80
2018-06-01T01:27:30.534Z,19.70
2018-06-01T01:30:52.154Z,19.50
2018-06-01T01:33:54.666Z,19.40
2018-06-01T01:36:57.948Z,19.60
2018-06-01T01:40:01.183Z,19.60
2018-06-01T01:43:03.700Z,19.60
2018-06-01T01:46:06.268Z,19.60
2018-06-01T01:49:08.755Z,19.60
2018-06-01T01:52:11.274Z,19.70
2018-06-01T01:55:13.824Z,19.80
2018-06-01T01:58:16.349Z,19.70
2018-06-01T02:01:18.880Z,19.70
2018-06-01T02:04:21.388Z,19.70
2018-06-01T02:07:23.888Z,19.70
2018-06-01T02:13:35.355Z,19.60
2018-06-01T02:16:38.614Z,19.60
2018-06-01T02:19:41.131Z,19.60
2018-06-01T02:22:43.620Z,19.50
2018-06-01T02:25:46.135Z,19.50
2018-06-01T02:28:48.638Z,19.40
2018-06-01T02:31:51.140Z,19.40
2018-06-01T02:34:54.423Z,19.30
2018-06-01T02:37:56.895Z,19.30
2018-06-01T02:40:59.371Z,19.30
2018-06-01T02:44:01.854Z,19.20
2018-06-01T02:47:04.323Z,19.20
2018-06-01T02:50:06.820Z,19.10
2018-06-01T02:53:10.083Z,19.20
2018-06-01T02:56:12.571Z,19.20
2018-06-01T02:59:15.866Z,19.40
2018-06-01T03:02:18.354Z,19.40
2018-06-01T03:05:20.939Z,19.50
2018-06-01T03:08:24.224Z,19.70
2018-06-01T03:11:26.732Z,19.70
2018-06-01T03:14:30.028Z,19.70
2018-06-01T03:17:33.293Z,19.80
2018-06-01T03:20:35.788Z,19.70
2018-06-01T03:23:38.335Z,19.70
2018-06-01T03:26:40.822Z,19.80
2018-06-01T03:29:43.318Z,19.80
2018-06-01T03:32:45.830Z,19.70
2018-06-01T03:35:48.327Z,19.70
2018-06-01T03:38:50.821Z,19.70
2018-06-01T03:41:53.301Z,19.60
2018-06-01T03:44:55.794Z,19.30
2018-06-01T03:47:58.299Z,19.10
2018-06-01T03:51:01.546Z,19.10
2018-06-01T03:54:04.064Z,19.10
2018-06-01T03:57:06.567Z,19.10
2018-06-01T04:00:09.058Z,19.10
2018-06-01T04:03:11.583Z,19.20
2018-06-01T04:06:14.114Z,19.30
2018-06-01T04:09:16.951Z,19.40
2018-06-01T04:12:19.409Z,19.60
2018-06-01T04:15:21.903Z,19.70
2018-06-01T04:18:24.431Z,19.90
2018-06-01T04:21:27.003Z,20.00
2018-06-01T04:24:29.495Z,20.10
2018-06-01T04:27:32.027Z,20.10
2018-06-01T04:30:34.559Z,20.10
2018-06-01T04:33:37.034Z,20.10
2018-06-01T04:36:39.554Z,20.20
2018-06-01T04:39:42.821Z,20.70
2018-06-01T04:42:45.298Z,20.60
2018-06-01T04:45:47.782Z,20.90
2018-06-01T04:48:52.035Z,21.50
2018-06-01T04:51:55.291Z,21.90
2018-06-01T04:54:57.779Z,21.90
2018-06-01T04:58:00.262Z,22.30
2018-06-01T05:01:02.933Z,22.80
2018-06-01T05:04:05.433Z,23.30
2018-06-01T05:07:07.898Z,23.80
2018-06-01T05:10:10.387Z,24.50
2018-06-01T05:13:12.888Z,25.70
2018-06-01T05:16:15.360Z,26.80
2018-06-01T05:19:17.876Z,27.40
2018-06-01T05:22:20.385Z,28.20
2018-06-01T05:25:22.887Z,29.10
2018-06-01T05:28:26.159Z,30.30
2018-06-01T05:31:28.649Z,30.30
2018-06-01T05:34:31.883Z,30.50
2018-06-01T05:37:34.375Z,30.40
2018-06-01T05:40:36.890Z,29.10
2018-06-01T05:43:39.380Z,27.50
2018-06-01T05:46:42.671Z,25.80
2018-06-01T05:49:45.938Z,25.50
2018-06-01T05:52:48.429Z,25.40
2018-06-01T05:55:50.960Z,25.20
2018-06-01T05:58:54.041Z,25.00
2018-06-01T06:01:56.552Z,24.70
2018-06-01T06:04:59.055Z,24.60
2018-06-01T06:08:01.542Z,25.00
2018-06-01T06:11:04.820Z,25.50
2018-06-01T06:14:07.299Z,25.40
2018-06-01T06:17:09.791Z,25.80
2018-06-01T06:20:12.272Z,25.80
2018-06-01T06:23:14.779Z,25.70
2018-06-01T06:26:17.412Z,26.10
2018-06-01T06:29:19.939Z,26.50
2018-06-01T06:32:22.421Z,26.90
2018-06-01T06:35:24.915Z,27.20
2018-06-01T06:38:27.399Z,27.40
2018-06-01T06:41:29.904Z,27.80
2018-06-01T06:44:32.385Z,28.60
2018-06-01T06:47:34.861Z,29.70
2018-06-01T06:50:37.357Z,31.30
2018-06-01T06:53:40.602Z,32.40
2018-06-01T06:56:43.083Z,32.40
2018-06-01T06:59:48.808Z,32.50
2018-06-01T07:02:51.290Z,32.10
2018-06-01T07:05:53.811Z,32.20
2018-06-01T07:08:56.311Z,31.30
2018-06-01T07:11:58.826Z,30.40
2018-06-01T07:15:01.333Z,29.80
2018-06-01T07:18:03.838Z,29.30
2018-06-01T07:21:06.346Z,28.60
2018-06-01T07:24:08.834Z,28.40
2018-06-01T07:27:11.343Z,28.30
2018-06-01T07:30:13.985Z,28.30
2018-06-01T07:33:16.514Z,29.40
2018-06-01T07:36:18.982Z,30.10
2018-06-01T07:39:21.468Z,31.10
2018-06-01T07:42:23.955Z,31.80
2018-06-01T07:45:26.442Z,31.90
2018-06-01T07:48:28.952Z,31.70
2018-06-01T07:51:31.467Z,31.20
2018-06-01T07:54:33.997Z,30.30
2018-06-01T07:57:36.471Z,29.50
2018-06-01T08:00:38.946Z,29.20
2018-06-01T08:03:41.432Z,29.40
2018-06-01T08:06:43.970Z,29.80
2018-06-01T08:09:46.463Z,30.10
2018-06-01T08:12:48.954Z,30.00
2018-06-01T08:15:52.202Z,30.90
2018-06-01T08:18:54.700Z,30.80
2018-06-01T08:21:57.251Z,32.10
2018-06-01T08:24:59.746Z,32.60
2018-06-01T08:28:02.232Z,32.70
2018-06-01T08:31:04.782Z,32.10
2018-06-01T08:34:07.246Z,31.30
2018-06-01T08:37:09.771Z,30.30
2018-06-01T08:40:12.266Z,29.20
2018-06-01T08:43:15.542Z,27.10
2018-06-01T08:46:18.122Z,27.00
2018-06-01T08:49:21.406Z,26.30
2018-06-01T08:52:23.941Z,26.30
2018-06-01T08:55:27.154Z,26.40
2018-06-01T08:58:29.622Z,26.40
2018-06-01T09:01:32.121Z,26.30
2018-06-01T09:04:34.603Z,26.30
2018-06-01T09:07:37.116Z,26.40
2018-06-01T09:10:40.373Z,26.10
2018-06-01T09:13:42.906Z,26.10
2018-06-01T09:16:46.267Z,25.50
2018-06-01T09:19:48.708Z,25.50
2018-06-01T09:22:51.288Z,25.10
2018-06-01T09:25:53.771Z,24.80
2018-06-01T09:28:56.258Z,24.50
2018-06-01T09:31:58.737Z,24.20
2018-06-01T09:35:01.988Z,23.60
2018-06-01T09:38:04.475Z,23.60
2018-06-01T09:41:06.959Z,23.50
2018-06-01T09:44:09.467Z,23.60
2018-06-01T09:47:11.938Z,23.60
2018-06-01T09:50:14.419Z,23.80
2018-06-01T09:53:16.904Z,24.10
2018-06-01T09:56:19.386Z,24.30
2018-06-01T09:59:21.865Z,24.60
2018-06-01T10:02:24.384Z,24.80
2018-06-01T10:05:27.639Z,24.80
2018-06-01T10:08:30.123Z,24.80
2018-06-01T10:11:32.699Z,24.70
2018-06-01T10:14:35.175Z,24.60
2018-06-01T10:17:37.639Z,24.30
2018-06-01T10:20:40.090Z,24.00
2018-06-01T10:23:42.558Z,24.00
2018-06-01T10:26:45.012Z,24.00
2018-06-01T10:29:58.285Z,23.80
2018-06-01T10:33:00.764Z,23.80
2018-06-01T10:36:03.202Z,23.80
2018-06-01T10:39:05.671Z,23.50
2018-06-01T10:42:08.904Z,23.50
2018-06-01T10:45:11.361Z,23.50
2018-06-01T10:48:13.798Z,23.60
2018-06-01T10:51:16.250Z,23.90
2018-06-01T10:54:20.729Z,24.40
2018-06-01T10:57:23.208Z,25.00
2018-06-01T11:00:25.661Z,25.40
2018-06-01T11:03:28.888Z,25.80
2018-06-01T11:06:31.505Z,25.80
2018-06-01T11:09:34.022Z,25.60
2018-06-01T11:12:37.242Z,25.60
2018-06-01T11:15:39.690Z,25.60
2018-06-01T11:18:42.914Z,26.20
2018-06-01T11:21:45.353Z,26.20
2018-06-01T11:24:48.578Z,26.90
2018-06-01T11:27:51.047Z,26.90
2018-06-01T11:30:53.493Z,27.10
2018-06-01T11:33:55.937Z,27.30
2018-06-01T11:36:58.394Z,27.40
2018-06-01T11:40:00.845Z,27.40
2018-06-01T11:43:03.305Z,27.20
2018-06-01T11:46:06.542Z,27.00
2018-06-01T11:49:08.994Z,27.00
2018-06-01T11:52:11.455Z,27.00
2018-06-01T11:55:13.899Z,26.60
2018-06-01T11:58:16.350Z,26.70
2018-06-01T12:01:18.810Z,27.00
2018-06-01T12:04:21.269Z,27.20
2018-06-01T12:07:24.494Z,26.90
2018-06-01T12:10:26.946Z,26.90
2018-06-01T12:13:30.178Z,26.50
2018-06-01T12:16:32.633Z,26.40
2018-06-01T12:19:35.102Z,26.20
2018-06-01T12:22:37.546Z,26.00
2018-06-01T12:25:39.993Z,26.00
2018-06-01T12:28:42.470Z,25.80
2018-06-01T12:31:51.817Z,25.60
2018-06-01T12:34:54.267Z,25.50
2018-06-01T12:37:56.734Z,25.50
2018-06-01T12:40:59.181Z,25.70
2018-06-01T12:44:02.409Z,25.70
2018-06-01T12:47:04.854Z,25.70
2018-06-01T12:50:08.069Z,25.60
2018-06-01T12:53:10.530Z,25.60
2018-06-01T12:56:13.762Z,26.00
2018-06-01T12:59:16.217Z,25.90
2018-06-01T13:02:18.657Z,26.30
2018-06-01T13:05:21.118Z,26.50
2018-06-01T13:08:23.574Z,26.50
2018-06-01T13:11:26.022Z,26.30
2018-06-01T13:14:28.487Z,26.20
2018-06-01T13:17:31.707Z,25.90
2018-06-01T13:20:34.198Z,25.90
2018-06-01T13:23:37.365Z,25.80
2018-06-01T13:26:39.883Z,25.70
2018-06-01T13:29:42.368Z,25.70
2018-06-01T13:32:45.077Z,25.60
2018-06-01T13:35:47.525Z,25.50
2018-06-01T13:38:49.971Z,25.30
2018-06-01T13:41:52.441Z,25.30
2018-06-01T13:44:55.645Z,25.40
2018-06-01T13:47:58.110Z,25.40
2018-06-01T13:51:00.551Z,25.30
2018-06-01T13:54:03.776Z,25.30
2018-06-01T13:57:07.033Z,25.20
2018-06-01T14:00:09.486Z,25.30
2018-06-01T14:03:11.942Z,25.20
2018-06-01T14:06:14.380Z,25.10
2018-06-01T14:09:17.652Z,25.00
2018-06-01T14:12:20.054Z,24.90
2018-06-01T14:15:23.276Z,25.20
2018-06-01T14:18:25.729Z,25.20
2018-06-01T14:21:28.182Z,25.40
2018-06-01T14:24:30.629Z,25.40
2018-06-01T14:27:33.090Z,25.50
2018-06-01T14:30:35.554Z,25.50
2018-06-01T14:33:38.058Z,25.50
2018-06-01T14:36:41.248Z,25.70
2018-06-01T14:39:43.698Z,25.70
2018-06-01T14:42:46.137Z,25.70
2018-06-01T14:45:48.585Z,25.70
2018-06-01T14:48:51.050Z,25.70
2018-06-01T14:51:53.503Z,25.80
2018-06-01T14:54:55.982Z,25.60
2018-06-01T14:57:58.509Z,25.50
2018-06-01T15:01:01.759Z,25.50
2018-06-01T15:04:04.214Z,25.50
2018-06-01T15:07:07.433Z,25.40
2018-06-01T15:10:12.474Z,25.40
2018-06-01T15:13:14.925Z,25.30
2018-06-01T15:16:18.146Z,25.20
2018-06-01T15:19:20.593Z,25.20
2018-06-01T15:22:23.818Z,25.10
2018-06-01T15:25:26.261Z,25.10
2018-06-01T15:28:29.498Z,25.20
2018-06-01T15:31:31.925Z,25.20
2018-06-01T15:34:35.149Z,25.10
2018-06-01T15:37:37.585Z,25.10
2018-06-01T15:40:40.041Z,25.20
2018-06-01T15:43:42.507Z,25.20
2018-06-01T15:46:44.969Z,25.30
2018-06-01T15:49:47.425Z,25.30
2018-06-01T15:52:49.877Z,25.20
2018-06-01T15:55:53.102Z,25.10
2018-06-01T15:58:55.559Z,25.10
2018-06-01T16:01:58.766Z,25.30
2018-06-01T16:05:01.222Z,25.30
2018-06-01T16:08:04.431Z,25.20
2018-06-01T16:11:06.882Z,25.10
2018-06-01T16:14:10.131Z,25.10
2018-06-01T16:17:12.558Z,25.00
2018-06-01T16:20:15.779Z,25.20
2018-06-01T16:23:18.235Z,25.10
2018-06-01T16:26:21.454Z,25.20
2018-06-01T16:29:23.918Z,25.20
2018-06-01T16:32:26.374Z,25.10
2018-06-01T16:35:29.601Z,25.00
2018-06-01T16:38:32.060Z,24.90
2018-06-01T16:41:35.285Z,24.80
2018-06-01T16:44:37.741Z,24.70
2018-06-01T16:47:40.206Z,24.60
2018-06-01T16:50:43.442Z,24.70
2018-06-01T16:53:45.894Z,24.70
2018-06-01T16:56:48.346Z,24.60
2018-06-01T16:59:51.566Z,24.60
2018-06-01T17:03:05.334Z,24.60
2018-06-01T17:06:07.843Z,24.60
2018-06-01T17:09:10.295Z,24.60
2018-06-01T17:12:12.749Z,24.60
2018-06-01T17:15:15.218Z,24.50
2018-06-01T17:18:17.667Z,24.40
2018-06-01T17:21:20.890Z,24.20
2018-06-01T17:24:23.341Z,24.20
2018-06-01T17:27:26.565Z,24.10
2018-06-01T17:30:29.014Z,24.00
2018-06-01T17:33:32.236Z,24.10
2018-06-01T17:36:34.682Z,24.10
2018-06-01T17:39:37.922Z,23.90
2018-06-01T17:42:40.354Z,23.90
2018-06-01T17:45:43.577Z,23.90
2018-06-01T17:48:46.022Z,23.90
2018-06-01T17:51:49.270Z,23.70
2018-06-01T17:54:51.722Z,23.70
2018-06-01T17:57:54.162Z,23.60
2018-06-01T18:00:57.386Z,23.40
2018-06-01T18:03:59.839Z,23.30
2018-06-01T18:07:03.161Z,23.20
2018-06-01T18:10:05.610Z,23.20
2018-06-01T18:13:08.831Z,23.20
2018-06-01T18:16:11.285Z,23.10
2018-06-01T18:19:14.509Z,23.20
2018-06-01T18:22:16.952Z,23.10
2018-06-01T18:25:19.405Z,23.00
2018-06-01T18:28:21.849Z,22.90
2018-06-01T18:31:24.298Z,22.90
2018-06-01T18:34:26.761Z,22.80
2018-06-01T18:37:29.974Z,22.70
2018-06-01T18:40:32.431Z,22.70
2018-06-01T18:43:35.654Z,22.60
2018-06-01T18:46:38.126Z,22.50
2018-06-01T18:49:40.581Z,22.50
2018-06-01T18:52:43.792Z,22.40
2018-06-01T18:55:46.245Z,22.40
2018-06-01T18:58:49.463Z,22.30
2018-06-01T19:01:51.926Z,22.20
2018-06-01T19:04:55.158Z,22.20
2018-06-01T19:07:57.611Z,22.20
2018-06-01T19:11:00.068Z,22.10
2018-06-01T19:14:03.287Z,22.00
2018-06-01T19:17:05.757Z,22.00
2018-06-01T19:20:08.970Z,21.90
2018-06-01T19:23:11.425Z,21.90
2018-06-01T19:26:13.873Z,21.90
2018-06-01T19:29:16.322Z,21.80
2018-06-01T19:32:18.773Z,21.70
2018-06-01T19:35:21.242Z,21.70
2018-06-01T19:38:23.689Z,21.70
2018-06-01T19:41:26.137Z,21.60
2018-06-01T19:44:28.590Z,21.60
2018-06-01T19:47:31.841Z,21.50
2018-06-01T19:50:35.074Z,21.40
2018-06-01T19:53:37.517Z,21.40
2018-06-01T19:56:40.746Z,21.20
2018-06-01T19:59:43.194Z,21.20
2018-06-01T20:02:46.405Z,21.10
2018-06-01T20:05:48.853Z,21.00
2018-06-01T20:08:52.469Z,21.00
2018-06-01T20:11:54.922Z,20.90
2018-06-01T20:14:57.374Z,20.90
2018-06-01T20:17:59.841Z,20.90
2018-06-01T20:21:02.294Z,20.80
2018-06-01T20:24:04.734Z,20.80
2018-06-01T20:27:07.189Z,20.70
2018-06-01T20:30:09.651Z,20.70
2018-06-01T20:33:12.085Z,20.60
2018-06-01T20:36:14.565Z,20.60
2018-06-01T20:39:17.039Z,20.50
2018-06-01T20:42:20.249Z,20.30
2018-06-01T20:45:22.701Z,20.30
2018-06-01T20:48:25.913Z,20.20
2018-06-01T20:51:28.399Z,20.10
2018-06-01T20:54:31.585Z,20.10
2018-06-01T20:57:34.042Z,20.10
2018-06-01T21:00:36.495Z,20.00
2018-06-01T21:03:38.938Z,20.00
2018-06-01T21:06:41.402Z,19.90
2018-06-01T21:09:43.858Z,19.90
2018-06-01T21:12:47.062Z,19.70
2018-06-01T21:15:49.517Z,19.70
2018-06-01T21:18:52.764Z,19.70
2018-06-01T21:21:55.255Z,19.70
2018-06-01T21:24:57.830Z,19.70
2018-06-01T21:28:00.475Z,19.70
2018-06-01T21:31:03.257Z,19.60
2018-06-01T21:34:05.866Z,19.40
2018-06-01T21:37:08.481Z,19.40
2018-06-01T21:40:11.049Z,19.30
2018-06-01T21:43:13.786Z,19.20
2018-06-01T21:46:16.584Z,19.20
2018-06-01T21:49:19.042Z,19.10
2018-06-01T21:52:21.497Z,19.20
2018-06-01T21:55:24.729Z,19.20
2018-06-01T21:58:27.241Z,19.10
2018-06-01T22:01:29.725Z,19.10
2018-06-01T22:04:32.176Z,19.10
2018-06-01T22:07:34.643Z,19.00
2018-06-01T22:10:37.102Z,19.10
2018-06-01T22:13:39.546Z,18.90
2018-06-01T22:16:42.778Z,18.90
2018-06-01T22:19:45.225Z,18.90
2018-06-01T22:22:48.453Z,18.80
2018-06-01T22:25:50.912Z,18.70
2018-06-01T22:28:53.773Z,18.70
2018-06-01T22:31:56.994Z,18.80
2018-06-01T22:34:59.445Z,18.80
2018-06-01T22:38:02.666Z,19.00
2018-06-01T22:41:05.126Z,18.90
2018-06-01T22:44:07.582Z,18.90
2018-06-01T22:47:10.049Z,18.90
2018-06-01T22:50:12.506Z,18.80
2018-06-01T22:53:14.958Z,18.80
2018-06-01T22:56:17.413Z,18.70
2018-06-01T22:59:20.675Z,18.90
2018-06-01T23:02:23.120Z,18.90
2018-06-01T23:05:25.565Z,19.00
2018-06-01T23:08:28.034Z,19.00
2018-06-01T23:11:31.255Z,19.10
2018-06-01T23:14:33.730Z,19.10
2018-06-01T23:17:36.191Z,19.10
2018-06-01T23:20:38.641Z,19.10
2018-06-01T23:23:41.868Z,19.10
2018-06-01T23:26:44.318Z,19.10
2018-06-01T23:29:47.542Z,19.20
2018-06-01T23:32:49.993Z,19.10
2018-06-01T23:35:53.230Z,19.10
2018-06-01T23:38:55.681Z,19.10
2018-06-01T23:41:58.138Z,19.10
2018-06-01T23:45:01.359Z,19.00
2018-06-01T23:48:03.811Z,19.00
2018-06-01T23:51:07.066Z,19.10
2018-06-01T23:54:09.508Z,19.10
2018-06-01T23:57:11.970Z,19.00
